Lame Deer, MT (59043)

12:54 PM MST on January 27, 2015 (GMT -0700)
RAWS BADGER PEAK MT US | Change Station
CLOSE
Current Station
Personal Weather Station
Location: Lame Deer, MT
Elevation: 4382 ft
Nearby Weather Stations

Elev 4382 ft 45.65 °N, 106.50 °W | Updated 53 minutes ago

Clear
Clear
66 °F
Feels Like 66 °F
N
5
Wind Variable Wind from NNE
Gusts 7.0 mph

Today
High -- | Low -- °F
--% Chance of Precip.
Yesterday
High -- | Low -- °F
Precip. -- in
7:33 AM 5:05 PM
First Quarter, 57% visible
Pressure 29.91 in
Visibility 10.0 miles
Clouds Clear
Dew Point 28 °F
Humidity 24%
Rainfall 0.00 in
Snow Depth Not available.
UV 3 out of 12
Pollen .10 out of 12
Air Quality Not available.
Flu Activity Not available.
METAR KSHR 271853Z AUTO 02007KT 10SM CLR 14/00 A2992 RMK AO2 SLP129 T01390000

More Conditions Fewer Conditions

Pressure 29.91 in
Visibility 10.0 miles
Clouds Clear
Dew Point 28 °F
Humidity 24%
Rainfall 0.00 in
Snow Depth Not available.
UV 3 out of 12
Pollen .10 out of 12
Air Quality Not available.
Flu Activity Not available.
METAR KSHR 271853Z AUTO 02007KT 10SM CLR 14/00 A2992 RMK AO2 SLP129 T01390000

More Conditions Fewer Conditions

10-Day Weather Forecast

Almanac

Astronomy

Jan. 27, 2015 Rise Set
Actual Time
Civil Twilight
Nautical Twilight
Astronomical Twilight
Moon
Length of Visible Light
Length of Day
Tomorrow will be .
, % of the Moon is Illuminated

Today's Extremes

State Highs State Lows

Community

WunderPhotos

Upload Photos

1,790,837 photos uploaded!

WunderBlogs® & News

Nearby

Air Quality

  Air Quality AQ Index Pollutant
Not available.

Snow Depth

Station Depth Elevation

Earthquake Activity

City Distance Mag. Time & Date
Minimum magnitude displayed is 2.5.

Coastal Water Temperatures

Place Temperature

Nearby Weather Stations